Time;durP1;ratioP1;P1;durP2;ratioP2;P2;SDS_P1;SDS_P2;PMS_P1;PMS_P2;Temp;Humidity;BMP_temperature;BMP_pressure;BME280_temperature;BME280_humidity;BME280_pressure;Samples;Min_cycle;Max_cycle;Signal;HPM_P1;HPM_P2
2023/09/29 00:01:22;;;;;;;5.20;4.10;;;14.10;99.90;;;;;;6173702;28;20053;-76
2023/09/29 00:04:24;;;;;;;6.35;3.45;;;14.10;99.90;;;;;;6177466;28;20076;-78
2023/09/29 00:07:25;;;;;;;8.65;3.80;;;14.10;99.90;;;;;;6172721;28;20058;-79
2023/09/29 00:10:28;;;;;;;7.75;3.83;;;14.00;99.90;;;;;;6173391;28;20051;-79
2023/09/29 00:13:33;;;;;;;6.20;3.47;;;14.00;99.90;;;;;;6177821;28;20046;-79
2023/09/29 00:16:35;;;;;;;7.38;3.90;;;14.00;99.90;;;;;;6167207;28;20051;-79
2023/09/29 00:19:38;;;;;;;5.88;3.55;;;14.00;99.90;;;;;;6171638;28;20506;-79
2023/09/29 00:22:40;;;;;;;3.90;3.60;;;13.90;99.90;;;;;;6171645;28;20452;-77
2023/09/29 00:25:42;;;;;;;6.03;3.97;;;13.90;99.90;;;;;;6171725;28;20050;-78
2023/09/29 00:28:45;;;;;;;3.85;3.13;;;13.80;99.90;;;;;;6172925;28;20142;-78
2023/09/29 00:31:48;;;;;;;4.93;3.92;;;13.70;99.90;;;;;;6177501;28;20179;-76
2023/09/29 00:34:50;;;;;;;5.65;4.05;;;13.60;99.90;;;;;;6170642;28;20117;-78
2023/09/29 00:37:53;;;;;;;4.72;3.83;;;13.50;99.90;;;;;;6171276;28;21191;-77
2023/09/29 00:40:55;;;;;;;5.35;3.78;;;13.50;99.90;;;;;;6171734;28;20409;-78
2023/09/29 00:44:02;;;;;;;4.88;3.55;;;13.50;99.90;;;;;;6172441;28;20079;-79
2023/09/29 00:47:06;;;;;;;4.78;4.15;;;13.60;99.90;;;;;;6171158;28;20066;-78
2023/09/29 00:50:10;;;;;;;4.97;3.97;;;13.50;99.90;;;;;;6170783;28;20086;-78
2023/09/29 00:53:15;;;;;;;3.28;3.03;;;13.50;99.90;;;;;;6172043;28;20047;-76
2023/09/29 00:56:17;;;;;;;4.38;3.47;;;13.50;99.90;;;;;;6173007;28;20407;-77
2023/09/29 00:59:20;;;;;;;6.25;3.55;;;13.60;99.90;;;;;;6172059;28;20134;-77
2023/09/29 01:02:23;;;;;;;4.82;3.90;;;13.60;99.90;;;;;;6172035;28;20053;-78
2023/09/29 01:05:25;;;;;;;5.72;3.00;;;13.60;99.90;;;;;;6171648;28;20043;-78
2023/09/29 01:08:29;;;;;;;5.10;3.30;;;13.60;99.90;;;;;;6176762;28;20047;-77
2023/09/29 01:11:42;;;;;;;6.88;2.80;;;13.60;99.90;;;;;;6176543;28;20070;-76
2023/09/29 01:14:46;;;;;;;6.90;3.67;;;13.60;99.90;;;;;;6169477;28;20267;-79
2023/09/29 01:17:48;;;;;;;3.80;3.05;;;13.60;99.90;;;;;;6177026;28;20412;-79
2023/09/29 01:20:50;;;;;;;4.35;3.78;;;13.60;99.90;;;;;;6176478;28;20194;-79
2023/09/29 01:23:54;;;;;;;4.55;3.67;;;13.60;99.90;;;;;;6175284;28;20531;-77
2023/09/29 01:26:55;;;;;;;5.45;3.63;;;13.70;99.90;;;;;;6176376;28;20042;-78
2023/09/29 01:33:55;;;;;;;3.70;3.15;;;13.70;99.90;;;;;;6173178;28;20067;-79
2023/09/29 01:36:59;;;;;;;3.47;3.13;;;13.70;99.90;;;;;;6176352;28;20046;-76
2023/09/29 01:40:02;;;;;;;5.07;3.45;;;13.70;99.90;;;;;;6195841;28;20066;-79
2023/09/29 01:43:05;;;;;;;9.30;3.53;;;13.70;99.90;;;;;;6183712;28;20071;-78
2023/09/29 01:46:11;;;;;;;5.75;3.72;;;13.70;99.90;;;;;;6188418;28;20137;-77
2023/09/29 01:49:12;;;;;;;5.95;3.50;;;13.60;99.90;;;;;;6184092;28;20054;-79
2023/09/29 01:52:14;;;;;;;5.72;3.90;;;13.60;99.90;;;;;;6192832;28;20135;-76
2023/09/29 01:55:22;;;;;;;4.10;3.70;;;13.60;99.90;;;;;;6195844;28;20046;-78
2023/09/29 01:58:24;;;;;;;;;;;13.60;99.90;;;;;;6178372;28;20073;-77
2023/09/29 02:01:29;;;;;;;3.90;3.38;;;13.60;99.90;;;;;;6178001;28;19929;-77
2023/09/29 02:04:34;;;;;;;7.28;3.50;;;13.60;99.90;;;;;;6181025;28;20061;-77
2023/09/29 02:07:37;;;;;;;4.55;3.28;;;13.70;99.90;;;;;;6180012;28;20043;-78
2023/09/29 02:10:41;;;;;;;3.90;3.20;;;13.80;99.90;;;;;;6172077;28;20047;-78
2023/09/29 02:13:44;;;;;;;5.90;4.20;;;13.90;99.90;;;;;;6180140;28;20062;-79
2023/09/29 02:16:48;;;;;;;4.60;3.65;;;13.90;99.90;;;;;;6180904;28;20097;-78
2023/09/29 02:19:52;;;;;;;4.90;3.63;;;14.00;99.90;;;;;;6180164;28;20047;-78
2023/09/29 02:22:55;;;;;;;3.53;3.00;;;14.00;99.90;;;;;;6180543;28;20050;-78
2023/09/29 02:26:00;;;;;;;4.00;3.17;;;14.00;99.90;;;;;;6180122;28;20639;-78
2023/09/29 02:29:04;;;;;;;4.68;3.50;;;14.10;99.90;;;;;;6182190;28;20053;-77
2023/09/29 02:32:09;;;;;;;4.32;3.28;;;14.10;99.90;;;;;;6181162;28;20047;-79
2023/09/29 02:35:11;;;;;;;4.93;3.63;;;14.10;99.90;;;;;;6175287;28;20046;-77
2023/09/29 02:38:13;;;;;;;6.38;3.63;;;14.20;99.90;;;;;;6175779;28;20133;-78
2023/09/29 02:41:17;;;;;;;5.60;3.10;;;14.20;99.90;;;;;;6177272;28;20043;-78
2023/09/29 02:44:22;;;;;;;5.55;3.45;;;14.20;99.90;;;;;;6177192;28;20046;-78
2023/09/29 02:47:23;;;;;;;4.72;3.80;;;14.20;99.90;;;;;;6180717;28;20042;-77
2023/09/29 02:50:25;;;;;;;3.50;3.05;;;14.30;99.90;;;;;;6179603;28;20055;-78
2023/09/29 02:53:27;;;;;;;4.07;3.47;;;14.30;99.90;;;;;;6180377;28;20073;-77
2023/09/29 02:56:30;;;;;;;5.22;3.90;;;14.40;99.90;;;;;;6180512;28;20118;-79
2023/09/29 02:59:33;;;;;;;4.25;3.72;;;14.50;99.90;;;;;;6178648;28;20047;-78
2023/09/29 03:02:35;;;;;;;6.60;4.03;;;14.50;99.90;;;;;;6186128;28;20380;-79
2023/09/29 03:05:39;;;;;;;6.57;4.25;;;14.50;99.90;;;;;;6179473;28;20050;-78
2023/09/29 03:08:42;;;;;;;5.72;3.67;;;14.60;99.90;;;;;;6172360;28;20043;-79
2023/09/29 03:11:45;;;;;;;3.53;3.10;;;14.60;99.90;;;;;;6180297;28;20050;-77
2023/09/29 03:14:46;;;;;;;3.60;3.15;;;14.70;99.90;;;;;;6180532;28;20126;-79
2023/09/29 03:17:48;;;;;;;4.47;3.08;;;14.70;99.90;;;;;;6180859;28;20500;-78
2023/09/29 03:20:52;;;;;;;4.00;2.97;;;14.70;99.90;;;;;;6180652;28;20504;-77
2023/09/29 03:23:54;;;;;;;6.05;3.03;;;14.70;99.90;;;;;;6182529;28;20054;-78
2023/09/29 03:26:57;;;;;;;4.00;3.50;;;14.70;99.90;;;;;;6183173;28;20051;-79
2023/09/29 03:29:59;;;;;;;3.97;3.00;;;14.80;99.90;;;;;;6172737;28;20050;-78
2023/09/29 03:33:00;;;;;;;3.38;2.88;;;14.80;99.90;;;;;;6173410;28;20054;-78
2023/09/29 03:36:03;;;;;;;4.40;3.00;;;14.90;99.90;;;;;;6174607;28;20059;-78
2023/09/29 03:39:06;;;;;;;3.90;3.08;;;14.90;99.90;;;;;;6176753;28;20091;-77
2023/09/29 03:42:09;;;;;;;4.47;2.88;;;14.90;99.90;;;;;;6179408;28;20361;-78
2023/09/29 03:45:14;;;;;;;4.88;3.15;;;14.90;99.90;;;;;;6178863;28;20532;-78
2023/09/29 03:48:16;;;;;;;3.88;3.30;;;14.90;99.90;;;;;;6176183;28;20078;-78
2023/09/29 03:51:22;;;;;;;6.05;4.07;;;15.00;99.90;;;;;;6176726;28;20042;-77
2023/09/29 03:54:24;;;;;;;4.35;3.83;;;15.00;99.90;;;;;;6187389;28;20042;-78
2023/09/29 03:57:27;;;;;;;3.28;2.90;;;15.00;99.90;;;;;;6196098;28;20042;-78
2023/09/29 04:00:30;;;;;;;6.72;3.38;;;15.00;99.90;;;;;;6185681;28;20050;-78
2023/09/29 04:03:31;;;;;;;4.72;2.95;;;15.00;99.90;;;;;;6178840;28;20137;-79
2023/09/29 04:06:34;;;;;;;3.10;2.80;;;15.10;99.90;;;;;;6176751;28;20385;-78
2023/09/29 04:09:35;;;;;;;5.30;3.05;;;15.00;99.90;;;;;;6179073;28;20680;-79
2023/09/29 04:12:39;;;;;;;4.38;3.30;;;15.00;99.90;;;;;;6181753;28;20488;-79
2023/09/29 04:15:40;;;;;;;5.57;3.33;;;15.00;99.90;;;;;;6194162;28;20103;-78
2023/09/29 04:18:42;;;;;;;5.22;3.28;;;15.00;99.90;;;;;;6176414;28;20425;-77
2023/09/29 04:21:45;;;;;;;5.50;3.03;;;15.10;99.90;;;;;;6177328;28;20050;-77
2023/09/29 04:24:47;;;;;;;3.40;3.08;;;15.10;99.90;;;;;;6177212;28;20046;-78
2023/09/29 04:27:50;;;;;;;3.60;2.72;;;15.20;99.90;;;;;;6176774;28;20042;-78
2023/09/29 04:30:52;;;;;;;3.78;3.03;;;15.20;99.90;;;;;;6176171;28;20492;-77
2023/09/29 04:33:54;;;;;;;9.93;4.03;;;15.20;99.90;;;;;;6176364;28;20042;-78
2023/09/29 04:36:56;;;;;;;4.05;3.50;;;15.20;99.90;;;;;;6177816;28;20054;-77
2023/09/29 04:39:58;;;;;;;4.43;3.53;;;15.20;99.90;;;;;;6178512;28;20520;-78
2023/09/29 04:43:02;;;;;;;5.22;3.58;;;15.20;99.90;;;;;;6181841;28;20047;-78
2023/09/29 04:46:03;;;;;;;3.38;2.95;;;15.20;99.90;;;;;;6180894;28;20420;-78
2023/09/29 04:49:07;;;;;;;5.50;4.32;;;15.20;99.90;;;;;;6180384;28;20055;-79
2023/09/29 04:52:09;;;;;;;4.57;3.38;;;15.20;99.90;;;;;;6185158;28;20051;-79
2023/09/29 04:55:10;;;;;;;3.92;2.45;;;15.20;99.90;;;;;;6187157;28;20045;-78
2023/09/29 04:58:13;;;;;;;3.53;2.95;;;15.20;99.90;;;;;;6193833;28;20046;-79
2023/09/29 05:01:17;;;;;;;9.43;3.40;;;15.20;99.90;;;;;;6194903;28;20047;-79
2023/09/29 05:04:19;;;;;;;4.32;3.20;;;15.20;99.90;;;;;;6193319;28;20046;-79
2023/09/29 05:07:20;;;;;;;3.88;3.53;;;15.20;99.90;;;;;;6191816;28;20042;-78
2023/09/29 05:10:22;;;;;;;5.13;3.13;;;15.20;99.90;;;;;;6191085;28;20130;-80
2023/09/29 05:13:28;;;;;;;3.97;3.33;;;15.20;99.90;;;;;;6189618;28;20046;-81
2023/09/29 05:16:30;;;;;;;3.20;2.88;;;15.20;99.90;;;;;;6189584;28;20046;-79
2023/09/29 05:19:31;;;;;;;3.97;2.78;;;15.20;99.90;;;;;;6190547;28;20046;-80
2023/09/29 05:22:34;;;;;;;3.50;3.05;;;15.20;99.90;;;;;;6189716;28;20050;-80
2023/09/29 05:25:36;;;;;;;3.35;3.00;;;15.20;99.90;;;;;;6187868;28;20611;-78
2023/09/29 05:28:39;;;;;;;6.38;3.30;;;15.20;99.90;;;;;;6188759;28;20038;-78
2023/09/29 05:31:41;;;;;;;5.93;3.30;;;15.20;99.90;;;;;;6183999;28;20046;-79
2023/09/29 05:34:43;;;;;;;4.22;3.53;;;15.30;99.90;;;;;;6186558;28;20043;-80
2023/09/29 05:37:44;;;;;;;6.63;2.92;;;15.20;99.90;;;;;;6186174;28;20046;-79
2023/09/29 05:40:47;;;;;;;5.97;3.83;;;15.30;99.90;;;;;;6187856;28;20061;-80
2023/09/29 05:43:50;;;;;;;4.30;3.28;;;15.30;99.90;;;;;;6186888;28;20148;-81
2023/09/29 05:46:51;;;;;;;6.03;3.75;;;15.30;99.90;;;;;;6188252;28;20057;-79
2023/09/29 05:49:53;;;;;;;3.30;3.00;;;15.30;99.90;;;;;;6187033;28;20043;-78
2023/09/29 05:52:56;;;;;;;5.65;4.05;;;15.30;99.90;;;;;;6185849;28;20060;-80
2023/09/29 05:56:06;;;;;;;4.20;3.20;;;15.30;99.90;;;;;;6191602;28;20073;-80
2023/09/29 05:59:09;;;;;;;8.73;3.45;;;15.20;99.90;;;;;;6185027;28;20101;-78
2023/09/29 06:02:10;;;;;;;4.43;3.33;;;15.20;99.90;;;;;;6188004;28;20057;-79
2023/09/29 06:05:12;;;;;;;6.38;3.50;;;15.30;99.90;;;;;;6187062;28;20051;-80
2023/09/29 06:08:14;;;;;;;10.20;3.83;;;15.30;99.90;;;;;;6190742;28;20053;-79
2023/09/29 06:11:16;;;;;;;8.85;3.35;;;15.40;99.90;;;;;;6194981;28;20046;-81
2023/09/29 06:14:19;;;;;;;5.25;3.38;;;15.50;99.90;;;;;;6190837;28;20475;-82
2023/09/29 06:17:20;;;;;;;4.60;3.83;;;15.60;99.90;;;;;;6181357;28;20046;-81
2023/09/29 06:20:22;;;;;;;5.38;3.33;;;15.70;99.90;;;;;;6179573;28;20051;-83
2023/09/29 06:23:24;;;;;;;5.43;3.65;;;15.90;99.90;;;;;;6179338;28;20050;-82
2023/09/29 06:26:26;;;;;;;4.28;3.55;;;16.00;99.90;;;;;;6179793;28;20043;-82
2023/09/29 06:29:29;;;;;;;31.83;5.97;;;16.00;99.90;;;;;;6154799;28;20059;-82
2023/09/29 06:32:31;;;;;;;12.45;3.55;;;16.10;99.90;;;;;;6183068;28;20046;-81
2023/09/29 06:35:32;;;;;;;5.05;3.17;;;16.20;99.90;;;;;;6191552;28;20041;-80
2023/09/29 06:38:34;;;;;;;5.63;3.33;;;16.20;99.90;;;;;;6204110;28;20137;-82
2023/09/29 06:41:36;;;;;;;6.20;3.58;;;16.30;99.90;;;;;;6181044;28;20042;-82
2023/09/29 06:44:39;;;;;;;7.22;4.38;;;16.30;99.90;;;;;;6180339;28;20043;-83
2023/09/29 06:47:41;;;;;;;10.30;3.85;;;16.40;99.90;;;;;;6180490;28;20034;-83
2023/09/29 06:50:42;;;;;;;2.85;2.65;;;16.50;99.90;;;;;;6179331;28;20401;-83
2023/09/29 06:53:44;;;;;;;4.85;3.03;;;16.70;99.90;;;;;;6178518;28;20059;-82
2023/09/29 06:56:46;;;;;;;5.13;3.90;;;17.00;99.90;;;;;;6181779;28;20054;-83
2023/09/29 06:59:50;;;;;;;5.20;4.13;;;17.50;99.90;;;;;;6178800;28;20039;-82
2023/09/29 07:02:52;;;;;;;4.88;2.90;;;17.90;99.90;;;;;;6177620;28;20061;-81
2023/09/29 07:05:53;;;;;;;4.63;3.90;;;18.20;99.90;;;;;;6177596;28;20132;-82
2023/09/29 07:08:55;;;;;;;7.55;2.90;;;18.50;99.90;;;;;;6178339;28;20065;-84
2023/09/29 07:11:57;;;;;;;3.58;2.78;;;18.70;99.90;;;;;;6179014;28;20051;-84
2023/09/29 07:15:01;;;;;;;6.63;2.95;;;18.80;99.90;;;;;;6177935;28;20129;-84
2023/09/29 07:18:02;;;;;;;3.80;3.30;;;18.80;99.90;;;;;;6178539;28;20047;-82
2023/09/29 07:21:04;;;;;;;3.00;2.67;;;18.80;99.90;;;;;;6190098;28;20053;-80
2023/09/29 07:24:07;;;;;;;8.07;2.90;;;18.80;99.90;;;;;;6179964;28;20077;-82
2023/09/29 07:27:09;;;;;;;4.07;3.33;;;19.00;99.90;;;;;;6179483;28;20050;-82
2023/09/29 07:30:12;;;;;;;6.28;4.78;;;19.70;99.90;;;;;;6178748;28;20050;-82
2023/09/29 07:33:14;;;;;;;9.48;5.93;;;20.40;99.90;;;;;;6178035;28;20415;-83
2023/09/29 07:36:16;;;;;;;5.45;2.90;;;21.00;99.90;;;;;;6177383;28;20047;-83
2023/09/29 07:39:18;;;;;;;5.53;3.30;;;21.20;99.90;;;;;;6176930;28;20053;-82
2023/09/29 07:42:19;;;;;;;4.32;3.08;;;21.30;99.90;;;;;;6177358;28;20050;-83
2023/09/29 07:45:23;;;;;;;5.00;3.38;;;21.30;99.90;;;;;;6177155;28;20047;-83
2023/09/29 07:48:25;;;;;;;5.18;2.58;;;21.20;99.90;;;;;;6177561;28;20046;-79
2023/09/29 07:51:27;;;;;;;4.30;2.95;;;21.00;99.90;;;;;;6176901;28;20422;-81
2023/09/29 07:54:28;;;;;;;6.20;2.60;;;20.80;99.90;;;;;;6176718;28;20054;-80
2023/09/29 07:57:30;;;;;;;6.25;2.97;;;20.70;99.90;;;;;;6175364;28;20512;-81
2023/09/29 08:00:33;;;;;;;5.95;3.53;;;20.60;99.90;;;;;;6177042;28;20043;-81
2023/09/29 08:03:35;;;;;;;3.13;2.78;;;20.60;99.90;;;;;;6176887;28;20050;-81
2023/09/29 08:06:37;;;;;;;5.50;3.50;;;20.80;99.90;;;;;;6177414;28;20053;-84
2023/09/29 08:09:38;;;;;;;4.95;3.25;;;21.70;99.90;;;;;;6176471;28;20043;-81
2023/09/29 08:12:40;;;;;;;10.00;3.13;;;22.10;99.90;;;;;;6177424;28;20050;-82
2023/09/29 08:15:43;;;;;;;8.48;3.38;;;22.90;99.90;;;;;;6175160;28;20061;-80
2023/09/29 08:18:45;;;;;;;3.53;2.72;;;23.90;99.90;;;;;;6175968;28;20049;-81
2023/09/29 08:21:48;;;;;;;6.18;2.72;;;24.70;99.40;;;;;;6176049;28;20054;-81
2023/09/29 08:24:49;;;;;;;4.25;2.83;;;25.00;97.40;;;;;;6176862;28;20055;-79
2023/09/29 08:27:51;;;;;;;6.25;3.03;;;25.30;96.10;;;;;;6171801;28;20053;-78
2023/09/29 08:30:54;;;;;;;5.35;2.97;;;25.50;94.90;;;;;;6172198;28;20050;-78
2023/09/29 08:33:56;;;;;;;3.38;2.60;;;25.60;94.00;;;;;;6182622;28;20046;-78
2023/09/29 08:36:57;;;;;;;5.60;2.53;;;25.60;93.50;;;;;;6174957;28;20569;-77
2023/09/29 08:39:59;;;;;;;5.53;3.35;;;25.60;92.90;;;;;;6173585;28;20046;-77
2023/09/29 08:43:01;;;;;;;5.45;3.15;;;25.60;92.60;;;;;;6172749;28;20058;-78
2023/09/29 08:46:04;;;;;;;3.45;3.15;;;26.00;92.60;;;;;;6172953;28;20061;-78
2023/09/29 08:49:08;;;;;;;4.07;2.33;;;26.30;91.70;;;;;;6172107;28;20137;-77
2023/09/29 08:52:11;;;;;;;3.05;2.53;;;26.50;91.00;;;;;;6171843;28;20070;-77
2023/09/29 08:55:13;;;;;;;5.07;2.70;;;26.50;90.20;;;;;;6181699;28;20050;-78
2023/09/29 08:58:15;;;;;;;5.15;2.67;;;26.50;90.10;;;;;;6175180;28;20140;-77
2023/09/29 09:01:19;;;;;;;6.65;3.47;;;26.70;88.60;;;;;;6173019;28;20047;-77
2023/09/29 09:04:21;;;;;;;3.80;2.35;;;26.80;86.60;;;;;;6173513;28;20452;-78
2023/09/29 09:07:23;;;;;;;5.97;3.13;;;26.90;85.20;;;;;;6173356;28;20050;-78
2023/09/29 09:10:31;;;;;;;4.25;2.55;;;26.90;84.30;;;;;;6175021;28;20125;-81
2023/09/29 09:13:33;;;;;;;6.25;2.67;;;26.90;83.40;;;;;;6176326;28;20561;-82
2023/09/29 09:16:38;;;;;;;4.47;2.60;;;26.90;82.60;;;;;;6177376;28;20078;-82
2023/09/29 09:19:45;;;;;;;3.47;2.58;;;26.90;81.20;;;;;;6199420;23;20042;-82
2023/09/29 09:22:57;;;;;;;4.25;2.30;;;26.70;80.60;;;;;;6177280;28;20054;-82
2023/09/29 09:26:12;;;;;;;3.08;2.60;;;26.50;80.80;;;;;;6175240;28;20058;-81
2023/09/29 09:29:16;;;;;;;3.88;2.72;;;26.40;80.60;;;;;;6185422;28;20046;-82
2023/09/29 09:32:27;;;;;;;4.82;2.72;;;26.20;80.30;;;;;;6182918;28;20058;-80
2023/09/29 09:35:30;;;;;;;4.15;2.90;;;26.40;79.90;;;;;;6181860;28;20058;-80
2023/09/29 09:38:32;;;;;;;3.92;2.47;;;26.60;79.40;;;;;;6182168;28;20042;-81
2023/09/29 09:41:35;;;;;;;4.93;2.20;;;26.80;79.00;;;;;;6181770;28;20050;-80
2023/09/29 09:44:38;;;;;;;6.10;2.40;;;27.00;78.30;;;;;;6181312;28;20053;-78
2023/09/29 09:47:42;;;;;;;5.47;3.45;;;27.30;77.70;;;;;;6181306;28;20043;-80
2023/09/29 09:50:45;;;;;;;3.40;2.40;;;27.60;77.10;;;;;;6180030;28;20042;-79
2023/09/29 09:53:48;;;;;;;5.93;2.33;;;27.90;76.20;;;;;;6178849;28;20049;-79
2023/09/29 09:56:55;;;;;;;2.20;2.00;;;28.10;75.80;;;;;;6179136;28;20050;-78
2023/09/29 10:00:06;;;;;;;3.83;2.03;;;28.40;74.30;;;;;;6180957;28;20061;-79
2023/09/29 10:03:12;;;;;;;3.97;2.15;;;28.60;73.50;;;;;;6180669;28;20053;-79
2023/09/29 10:06:14;;;;;;;3.15;1.90;;;28.80;72.80;;;;;;6179936;28;20134;-76
2023/09/29 10:09:16;;;;;;;3.88;2.72;;;29.10;72.50;;;;;;6180456;28;20042;-78
2023/09/29 10:12:24;;;;;;;4.03;2.25;;;29.30;71.70;;;;;;6180862;28;20110;-79
2023/09/29 10:15:29;;;;;;;3.70;2.92;;;29.60;70.80;;;;;;6180488;28;20043;-79
2023/09/29 10:18:33;;;;;;;6.68;2.50;;;29.90;69.80;;;;;;6180075;28;20486;-80
2023/09/29 10:21:42;;;;;;;4.00;2.20;;;29.90;68.90;;;;;;6177628;28;20055;-79
2023/09/29 10:24:44;;;;;;;3.85;1.85;;;30.00;68.60;;;;;;6181792;28;20113;-80
2023/09/29 10:27:49;;;;;;;4.18;1.98;;;30.30;68.20;;;;;;6179759;28;20049;-78
2023/09/29 10:30:51;;;;;;;2.97;2.10;;;30.30;67.00;;;;;;6181752;28;20038;-78
2023/09/29 10:33:55;;;;;;;2.97;2.28;;;30.40;66.70;;;;;;6182761;28;20460;-79
2023/09/29 10:36:57;;;;;;;3.60;2.65;;;30.30;66.40;;;;;;6178174;28;20373;-78
2023/09/29 10:39:59;;;;;;;2.28;2.08;;;30.30;66.30;;;;;;6189869;28;20051;-80
2023/09/29 10:43:02;;;;;;;2.65;2.05;;;30.30;66.00;;;;;;6183527;28;20053;-82
2023/09/29 10:46:08;;;;;;;5.07;2.22;;;30.40;66.00;;;;;;6181992;28;20055;-82
2023/09/29 10:49:11;;;;;;;4.03;1.95;;;30.60;65.40;;;;;;6181592;28;20047;-80
2023/09/29 10:52:19;;;;;;;5.30;2.38;;;30.90;64.90;;;;;;6179251;28;20062;-79
2023/09/29 10:55:21;;;;;;;10.80;4.35;;;31.00;64.10;;;;;;6177855;28;20046;-81
2023/09/29 10:58:22;;;;;;;5.22;3.08;;;30.80;63.90;;;;;;6178712;28;20046;-80
2023/09/29 11:01:28;;;;;;;2.80;2.05;;;30.90;63.90;;;;;;6178734;28;20415;-83
2023/09/29 11:04:31;;;;;;;2.72;1.92;;;30.90;63.40;;;;;;6178682;28;20046;-79
2023/09/29 11:07:46;;;;;;;4.70;2.33;;;31.00;63.10;;;;;;6177597;28;20057;-79
2023/09/29 11:10:59;;;;;;;3.40;2.45;;;31.20;62.50;;;;;;6178190;28;20422;-79
2023/09/29 11:14:04;;;;;;;4.78;3.08;;;31.10;62.10;;;;;;6178216;28;20050;-78
2023/09/29 11:17:06;;;;;;;2.72;1.95;;;31.00;62.40;;;;;;6177370;28;20050;-79
2023/09/29 11:20:15;;;;;;;5.32;1.77;;;31.20;62.20;;;;;;6170350;28;20047;-76
2023/09/29 11:23:17;;;;;;;3.35;2.30;;;31.40;61.30;;;;;;6176852;28;20185;-77
2023/09/29 11:26:20;;;;;;;2.22;1.63;;;31.50;61.00;;;;;;6176157;28;20047;-78
2023/09/29 11:29:23;;;;;;;4.68;2.10;;;31.60;60.70;;;;;;6176360;28;20515;-78
2023/09/29 11:32:24;;;;;;;4.07;2.08;;;31.60;59.80;;;;;;6176952;28;20055;-78
2023/09/29 11:35:28;;;;;;;4.68;2.75;;;31.50;60.00;;;;;;6176922;28;20055;-78
2023/09/29 11:38:30;;;;;;;2.17;1.67;;;31.40;60.00;;;;;;6176577;28;20062;-77
2023/09/29 11:41:32;;;;;;;3.10;2.00;;;31.50;59.90;;;;;;6177426;28;20045;-78
2023/09/29 11:44:35;;;;;;;3.10;2.13;;;31.40;59.70;;;;;;6177864;28;20472;-78
2023/09/29 11:47:39;;;;;;;2.63;2.35;;;31.60;59.70;;;;;;6178014;28;20047;-79
2023/09/29 11:50:42;;;;;;;5.47;2.67;;;31.90;59.60;;;;;;6173350;28;20042;-78
2023/09/29 11:53:44;;;;;;;3.20;2.45;;;32.10;59.10;;;;;;6178869;28;20050;-79
2023/09/29 11:56:45;;;;;;;2.95;2.00;;;32.40;58.30;;;;;;6178257;28;20506;-78
2023/09/29 11:59:47;;;;;;;3.15;1.80;;;32.60;57.80;;;;;;6178537;28;20046;-79
2023/09/29 12:02:49;;;;;;;2.17;1.73;;;32.50;57.40;;;;;;6176431;28;20042;-77
2023/09/29 12:05:52;;;;;;;3.53;2.33;;;32.40;57.40;;;;;;6176879;28;20050;-78
2023/09/29 12:08:54;;;;;;;3.80;2.33;;;32.00;57.30;;;;;;6178263;28;20047;-78
2023/09/29 12:12:00;;;;;;;5.22;2.15;;;31.40;58.00;;;;;;6179385;28;20114;-79
2023/09/29 12:15:02;;;;;;;2.63;1.73;;;30.90;58.50;;;;;;6178886;28;20046;-79
2023/09/29 12:18:04;;;;;;;5.90;2.20;;;30.30;59.10;;;;;;6178528;28;20057;-79
2023/09/29 12:21:11;;;;;;;4.43;2.58;;;29.80;59.70;;;;;;6180410;28;20054;-79
2023/09/29 12:24:13;;;;;;;3.25;1.80;;;29.30;60.50;;;;;;6179291;28;20054;-79
2023/09/29 12:27:15;;;;;;;2.85;2.00;;;28.90;61.30;;;;;;6177995;28;20062;-78
2023/09/29 12:30:18;;;;;;;3.10;2.75;;;28.60;62.00;;;;;;6175848;28;20050;-80
2023/09/29 12:33:23;;;;;;;2.42;2.22;;;28.40;62.90;;;;;;6181902;28;20054;-79
2023/09/29 12:36:27;;;;;;;5.60;2.28;;;28.10;63.90;;;;;;6178253;28;20094;-80
2023/09/29 12:39:29;;;;;;;7.60;2.17;;;27.90;64.80;;;;;;6177617;28;20142;-80
2023/09/29 12:42:31;;;;;;;8.63;3.08;;;27.70;65.50;;;;;;6180679;28;20053;-80
2023/09/29 12:45:33;;;;;;;2.33;1.73;;;27.70;66.30;;;;;;6179743;28;20061;-80
2023/09/29 12:48:34;;;;;;;7.97;2.72;;;27.70;66.80;;;;;;6178756;28;20047;-79
2023/09/29 12:51:38;;;;;;;5.95;1.67;;;28.00;66.80;;;;;;6176049;28;20035;-79
2023/09/29 12:54:41;;;;;;;3.80;2.42;;;28.10;66.80;;;;;;6180974;28;20043;-80
2023/09/29 12:57:44;;;;;;;2.15;1.77;;;28.30;66.90;;;;;;6188274;28;20046;-80
2023/09/29 13:00:49;;;;;;;8.65;3.65;;;28.60;67.10;;;;;;6188609;28;20579;-76
2023/09/29 13:03:51;;;;;;;5.40;2.58;;;28.90;66.70;;;;;;6188455;28;20074;-77
2023/09/29 13:06:54;;;;;;;7.60;2.28;;;29.20;66.30;;;;;;6186729;28;20042;-78
2023/09/29 13:09:57;;;;;;;5.18;3.17;;;29.50;66.10;;;;;;6190700;28;20120;-78
2023/09/29 13:12:59;;;;;;;5.10;2.25;;;29.80;65.60;;;;;;6189373;28;20051;-79
2023/09/29 13:16:02;;;;;;;5.03;1.90;;;30.00;65.10;;;;;;6191424;28;20063;-79
2023/09/29 13:19:07;;;;;;;3.83;1.75;;;30.10;65.00;;;;;;6187129;28;20058;-78
2023/09/29 13:22:12;;;;;;;3.42;2.15;;;30.20;64.80;;;;;;6187365;28;20078;-79
2023/09/29 13:25:14;;;;;;;2.97;1.60;;;30.40;64.50;;;;;;6187658;28;20055;-79
2023/09/29 13:28:16;;;;;;;3.22;2.28;;;30.60;63.80;;;;;;6187579;28;20057;-79
2023/09/29 13:31:18;;;;;;;11.02;2.33;;;30.60;63.30;;;;;;6188593;28;20086;-79
2023/09/29 13:34:22;;;;;;;6.13;2.42;;;30.30;63.60;;;;;;6187377;28;20042;-79
2023/09/29 13:37:30;;;;;;;4.32;2.72;;;30.00;63.60;;;;;;6187902;28;20166;-78
2023/09/29 13:40:36;;;;;;;8.68;3.50;;;29.60;63.80;;;;;;6190627;28;20066;-80
2023/09/29 13:43:42;;;;;;;9.10;3.30;;;29.40;64.10;;;;;;6189166;28;20171;-80
2023/09/29 13:46:44;;;;;;;9.57;4.27;;;29.40;63.80;;;;;;6189215;28;20119;-80
2023/09/29 13:49:46;;;;;;;15.55;4.47;;;29.40;63.80;;;;;;6190873;28;20043;-80
2023/09/29 13:52:49;;;;;;;7.30;2.75;;;29.30;63.40;;;;;;6185097;28;20057;-79
2023/09/29 13:55:51;;;;;;;9.48;3.40;;;29.10;63.70;;;;;;6186695;28;20090;-77
2023/09/29 13:58:53;;;;;;;13.43;3.80;;;28.90;63.60;;;;;;6186948;28;20050;-78
2023/09/29 14:01:57;;;;;;;7.28;3.28;;;28.90;63.80;;;;;;6189496;28;20059;-79
2023/09/29 14:05:05;;;;;;;9.30;3.95;;;29.10;63.30;;;;;;6188075;28;20102;-78
2023/09/29 14:08:12;;;;;;;;;;;29.10;63.00;;;;;;6191305;28;20058;-81
2023/09/29 14:11:19;;;;;;;8.75;3.83;;;28.80;63.40;;;;;;6193530;28;19929;-77
2023/09/29 14:14:22;;;;;;;8.90;4.32;;;28.30;63.40;;;;;;6188526;28;20046;-81
2023/09/29 14:17:24;;;;;;;10.70;5.80;;;27.80;63.70;;;;;;6187848;28;20106;-77
2023/09/29 14:20:28;;;;;;;10.88;5.53;;;27.40;64.40;;;;;;6185556;28;20066;-76
2023/09/29 14:23:32;;;;;;;12.15;4.93;;;27.00;64.90;;;;;;6185433;28;20058;-78
2023/09/29 14:26:34;;;;;;;7.80;5.05;;;26.70;65.60;;;;;;6185179;28;20057;-77
2023/09/29 14:29:37;;;;;;;11.93;4.72;;;26.50;66.20;;;;;;6184004;28;20050;-77
2023/09/29 14:32:40;;;;;;;14.05;5.55;;;26.30;66.70;;;;;;6185849;28;20118;-78
2023/09/29 14:35:42;;;;;;;10.77;4.97;;;26.20;67.10;;;;;;6183898;28;20039;-78
2023/09/29 14:38:46;;;;;;;18.25;7.95;;;26.10;67.40;;;;;;6185348;28;20049;-78
2023/09/29 14:41:49;;;;;;;16.70;8.18;;;25.90;67.30;;;;;;6184816;28;20039;-80
2023/09/29 14:44:51;;;;;;;16.75;8.25;;;25.70;67.70;;;;;;6185808;28;20046;-77
2023/09/29 14:47:55;;;;;;;21.58;8.02;;;25.50;68.00;;;;;;6183557;28;20047;-78
2023/09/29 14:50:58;;;;;;;15.98;7.97;;;25.40;68.50;;;;;;6192051;28;20062;-80
2023/09/29 14:54:03;;;;;;;14.77;7.18;;;25.30;68.90;;;;;;6185707;28;20058;-80
2023/09/29 14:57:05;;;;;;;16.83;8.95;;;25.20;69.50;;;;;;6185696;28;20062;-78
2023/09/29 15:00:08;;;;;;;18.52;9.35;;;25.10;69.60;;;;;;6185449;28;20141;-79
2023/09/29 15:03:11;;;;;;;22.92;9.55;;;25.00;69.80;;;;;;6184816;28;20062;-78
2023/09/29 15:06:13;;;;;;;24.52;12.40;;;24.90;69.50;;;;;;6189281;28;20146;-77
2023/09/29 15:09:17;;;;;;;18.52;9.40;;;24.70;69.80;;;;;;6185133;28;20435;-79
2023/09/29 15:12:29;;;;;;;20.63;9.65;;;24.60;70.20;;;;;;6185116;28;20522;-79
2023/09/29 15:15:31;;;;;;;24.65;9.80;;;24.60;70.50;;;;;;6184981;28;20436;-78
2023/09/29 15:21:36;;;;;;;19.55;8.30;;;24.70;71.10;;;;;;6230657;23;20054;-78
2023/09/29 15:24:42;;;;;;;28.00;10.70;;;24.60;71.20;;;;;;6181355;28;20061;-78
2023/09/29 15:27:44;;;;;;;30.15;11.55;;;24.50;71.10;;;;;;6184201;28;20507;-78
2023/09/29 15:30:48;;;;;;;25.63;10.38;;;24.40;72.00;;;;;;6169191;28;20043;-77
2023/09/29 15:33:53;;;;;;;27.42;13.70;;;24.20;70.70;;;;;;6158065;28;20054;-79
2023/09/29 15:36:55;;;;;;;30.17;12.50;;;24.10;70.50;;;;;;6157625;28;20074;-78
2023/09/29 15:40:03;;;;;;;26.92;13.25;;;24.00;71.30;;;;;;6158157;28;20087;-77
2023/09/29 15:43:08;;;;;;;36.78;13.93;;;24.00;70.60;;;;;;6156134;28;20082;-78
2023/09/29 15:46:11;;;;;;;28.55;12.30;;;23.90;70.60;;;;;;6158219;28;20055;-79
2023/09/29 15:49:24;;;;;;;34.55;13.38;;;23.90;70.60;;;;;;6155837;28;20078;-77
2023/09/29 15:52:26;;;;;;;33.15;14.50;;;23.80;70.70;;;;;;6155775;28;20047;-79
2023/09/29 15:55:30;;;;;;;41.85;17.63;;;23.70;70.90;;;;;;6155002;28;20047;-79
2023/09/29 15:58:33;;;;;;;27.55;11.38;;;23.70;70.90;;;;;;6155244;28;20535;-79